Time;durP1;ratioP1;P1;durP2;ratioP2;P2;SDS_P1;SDS_P2;PMS_P1;PMS_P2;Temp;Humidity;BMP_temperature;BMP_pressure;BME280_temperature;BME280_humidity;BME280_pressure;Samples;Min_cycle;Max_cycle;Signal;HPM_P1;HPM_P2
2022/04/11 00:00:39;;;;;;;0.20;0.20;;;;;;;7.32;48.55;100771.13;6210424;23;19993;-77
2022/04/11 00:03:04;;;;;;;0.30;0.30;;;;;;;7.38;49.05;100771.78;6208952;23;19997;-78
2022/04/11 00:05:30;;;;;;;0.20;0.20;;;;;;;7.52;48.49;100777.97;6209769;23;20092;-78
2022/04/11 00:07:55;;;;;;;0.20;0.20;;;;;;;7.43;48.67;100783.50;6209872;23;20013;-77
2022/04/11 00:10:21;;;;;;;0.20;0.20;;;;;;;7.58;48.89;100776.63;6209713;23;19992;-78
2022/04/11 00:12:47;;;;;;;0.20;0.20;;;;;;;7.50;48.98;100780.22;6210755;23;20434;-78
2022/04/11 00:15:12;;;;;;;0.20;0.20;;;;;;;7.45;48.34;100777.63;6209641;23;20005;-77
2022/04/11 00:17:38;;;;;;;0.20;0.20;;;;;;;7.52;48.62;100787.06;6207976;23;19985;-78
2022/04/11 00:20:05;;;;;;;0.20;0.20;;;;;;;7.42;48.14;100784.63;6209671;23;20029;-78
2022/04/11 00:22:34;;;;;;;0.20;0.20;;;;;;;7.37;48.41;100786.75;6210178;23;20020;-77
2022/04/11 00:24:59;;;;;;;0.20;0.20;;;;;;;7.22;47.43;100794.41;6210108;23;19997;-78
2022/04/11 00:27:25;;;;;;;0.20;0.20;;;;;;;7.30;47.86;100790.84;6209146;23;20008;-77
2022/04/11 00:29:50;;;;;;;0.20;0.20;;;;;;;7.22;48.00;100790.81;6210728;23;20009;-78
2022/04/11 00:32:16;;;;;;;0.20;0.20;;;;;;;7.18;48.39;100793.41;6210638;23;20009;-78
2022/04/11 00:34:44;;;;;;;0.30;0.30;;;;;;;7.16;47.00;100795.72;6209572;23;20013;-78
2022/04/11 00:37:10;;;;;;;0.20;0.20;;;;;;;7.09;47.92;100792.63;6209952;23;20017;-78
2022/04/11 00:39:35;;;;;;;0.20;0.20;;;;;;;7.25;48.54;100790.19;6209163;23;20016;-77
2022/04/11 00:42:13;;;;;;;0.20;0.20;;;;;;;7.19;48.62;100786.78;6209649;23;20019;-77
2022/04/11 00:44:41;;;;;;;0.20;0.20;;;;;;;7.12;48.78;100780.88;6185176;23;20009;-78
2022/04/11 00:47:07;;;;;;;0.20;0.20;;;;;;;7.16;48.92;100783.84;6210080;23;19985;-78
2022/04/11 00:49:32;;;;;;;0.20;0.20;;;;;;;7.16;48.59;100794.91;6234799;23;20060;-78
2022/04/11 00:51:58;;;;;;;0.20;0.20;;;;;;;7.05;48.74;100806.28;6210399;23;19989;-77
2022/04/11 00:54:27;;;;;;;0.30;0.30;;;;;;;7.11;48.68;100795.88;6210141;23;20021;-78
2022/04/11 00:56:54;;;;;;;0.20;0.20;;;;;;;7.11;48.21;100790.34;6211279;23;20040;-79
2022/04/11 00:59:20;;;;;;;0.20;0.20;;;;;;;6.97;49.39;100800.72;6209735;23;20021;-78
2022/04/11 01:01:46;;;;;;;0.20;0.20;;;;;;;7.09;49.45;100798.97;6210014;23;20014;-78
2022/04/11 01:04:23;;;;;;;0.20;0.20;;;;;;;7.01;48.45;100785.94;6209265;23;20068;-77
2022/04/11 01:06:55;;;;;;;0.20;0.20;;;;;;;6.96;48.58;100796.34;6210442;23;19989;-78
2022/04/11 01:09:23;;;;;;;0.20;0.20;;;;;;;6.93;49.04;100805.31;6209824;23;20044;-78
2022/04/11 01:11:49;;;;;;;0.20;0.20;;;;;;;6.80;48.64;100805.09;6184609;23;20005;-78
2022/04/11 01:14:17;;;;;;;0.20;0.20;;;;;;;6.85;49.25;100806.09;6209483;23;20009;-79
2022/04/11 01:16:48;;;;;;;0.20;0.20;;;;;;;6.88;49.59;100813.75;6210665;23;20009;-78
2022/04/11 01:19:14;;;;;;;0.30;0.30;;;;;;;7.05;48.78;100805.47;6210320;23;19992;-78
2022/04/11 01:21:39;;;;;;;0.20;0.20;;;;;;;6.95;48.71;100817.66;6209293;23;20024;-78
2022/04/11 01:24:05;;;;;;;0.20;0.20;;;;;;;6.96;48.25;100819.28;6209837;23;20019;-78
2022/04/11 01:26:31;;;;;;;0.20;0.20;;;;;;;6.84;48.34;100813.56;6209226;23;20049;-78
2022/04/11 01:28:57;;;;;;;0.20;0.20;;;;;;;6.78;49.24;100814.88;6209702;23;20060;-78
2022/04/11 01:31:23;;;;;;;0.20;0.20;;;;;;;6.77;48.97;100808.53;6209340;23;20005;-79
2022/04/11 01:33:49;;;;;;;0.20;0.20;;;;;;;6.85;47.31;100820.72;6209194;23;20000;-77
2022/04/11 01:36:14;;;;;;;0.20;0.20;;;;;;;6.88;48.19;100813.75;6208004;23;20068;-77
2022/04/11 01:38:40;;;;;;;0.20;0.20;;;;;;;6.62;47.41;100783.28;6229195;22;20017;-79
2022/04/11 01:41:06;;;;;;;0.30;0.30;;;;;;;6.79;46.72;100781.34;6208943;23;20005;-78
2022/04/11 01:43:34;;;;;;;0.30;0.30;;;;;;;6.66;47.91;100778.69;6208661;23;20001;-78
2022/04/11 01:46:00;;;;;;;0.20;0.20;;;;;;;6.78;46.80;100787.22;6208137;23;20009;-78
2022/04/11 01:48:26;;;;;;;0.20;0.20;;;;;;;6.69;47.33;100795.47;6209242;23;20028;-78
2022/04/11 01:50:52;;;;;;;0.20;0.20;;;;;;;6.70;47.72;100793.53;6209900;23;19985;-78
2022/04/11 01:53:21;;;;;;;0.20;0.20;;;;;;;6.54;47.78;100776.56;6208572;23;20023;-79
2022/04/11 01:55:47;;;;;;;0.20;0.20;;;;;;;6.53;48.37;100786.00;6208791;23;20004;-79
2022/04/11 01:58:14;;;;;;;0.20;0.20;;;;;;;6.46;47.77;100778.19;6208647;23;19997;-79
2022/04/11 02:00:40;;;;;;;0.20;0.20;;;;;;;6.42;48.10;100757.84;6233703;23;19997;-78
2022/04/11 02:03:08;;;;;;;0.20;0.20;;;;;;;6.46;47.77;100775.41;6208814;23;20013;-78
2022/04/11 02:05:34;;;;;;;0.20;0.20;;;;;;;6.45;47.73;100779.31;6209532;23;20013;-79
2022/04/11 02:08:00;;;;;;;0.22;0.22;;;;;;;6.42;47.27;100779.16;6208441;23;20015;-78
2022/04/11 02:10:27;;;;;;;0.20;0.20;;;;;;;6.14;48.11;100762.78;6208649;23;20055;-79
2022/04/11 02:12:54;;;;;;;0.20;0.20;;;;;;;6.04;48.02;100724.41;6208843;23;19997;-78
2022/04/11 02:15:20;;;;;;;0.20;0.20;;;;;;;6.49;47.24;100779.47;6207399;23;20020;-78
2022/04/11 02:17:46;;;;;;;0.20;0.20;;;;;;;6.46;48.05;100780.13;6209042;23;19989;-78
2022/04/11 02:20:15;;;;;;;0.20;0.20;;;;;;;6.05;47.70;100692.88;6208654;23;20080;-79
2022/04/11 02:22:47;;;;;;;0.30;0.30;;;;;;;6.24;46.24;100723.81;6212310;22;20011;-78
2022/04/11 02:25:14;;;;;;;0.20;0.20;;;;;;;6.80;47.03;100826.41;6183649;23;20013;-79
2022/04/11 02:27:41;;;;;;;0.20;0.20;;;;;;;6.67;46.82;100808.81;6183231;23;20001;-79
2022/04/11 02:30:08;;;;;;;0.20;0.20;;;;;;;6.36;48.16;100797.00;6182852;23;20072;-78
2022/04/11 02:32:34;;;;;;;0.20;0.20;;;;;;;6.07;49.35;100762.41;6182186;23;20070;-78
2022/04/11 02:34:59;;;;;;;0.20;0.20;;;;;;;6.20;49.37;100774.50;6183506;23;19997;-79
2022/04/11 02:37:25;;;;;;;0.20;0.20;;;;;;;6.21;48.15;100779.72;6185972;23;20040;-78
2022/04/11 02:39:54;;;;;;;0.20;0.20;;;;;;;6.22;49.07;100792.38;6185789;23;20003;-78
2022/04/11 02:42:27;;;;;;;0.20;0.20;;;;;;;6.52;48.89;100814.78;6209439;23;20053;-79
2022/04/11 02:44:53;;;;;;;0.30;0.30;;;;;;;6.37;48.80;100782.06;6186476;23;20104;-78
2022/04/11 02:47:21;;;;;;;0.20;0.20;;;;;;;6.26;47.59;100779.56;6209585;23;19997;-79
2022/04/11 02:49:47;;;;;;;0.30;0.30;;;;;;;6.40;47.10;100809.88;6209479;23;20013;-78
2022/04/11 02:52:14;;;;;;;0.30;0.30;;;;;;;6.07;48.27;100767.94;6182888;23;20009;-79
2022/04/11 02:54:40;;;;;;;0.30;0.30;;;;;;;5.60;47.71;100726.13;6208201;23;20004;-78
2022/04/11 02:57:07;;;;;;;0.30;0.30;;;;;;;5.67;49.12;100736.69;6209739;23;20437;-79
2022/04/11 02:59:33;;;;;;;0.20;0.20;;;;;;;6.26;48.25;100834.03;6184940;23;20092;-78
2022/04/11 03:02:02;;;;;;;0.20;0.20;;;;;;;6.08;48.71;100791.69;6186200;23;19993;-79
2022/04/11 03:04:30;;;;;;;0.20;0.20;;;;;;;6.25;47.93;100827.69;6185916;23;19997;-78
2022/04/11 03:06:56;;;;;;;0.20;0.20;;;;;;;5.78;48.55;100769.25;6184773;23;20007;-78
2022/04/11 03:09:22;;;;;;;0.20;0.20;;;;;;;5.51;48.86;100731.56;6186065;23;20011;-79
2022/04/11 03:11:48;;;;;;;0.20;0.20;;;;;;;5.98;48.06;100800.25;6186453;23;20013;-79
2022/04/11 03:14:14;;;;;;;0.25;0.25;;;;;;;6.00;47.84;100840.22;6202737;23;19997;-78
2022/04/11 03:16:41;;;;;;;0.30;0.30;;;;;;;5.82;48.11;100793.47;6186115;23;20053;-78
2022/04/11 03:19:07;;;;;;;0.20;0.20;;;;;;;5.94;48.53;100813.06;6185157;23;20069;-78
2022/04/11 03:21:33;;;;;;;0.20;0.20;;;;;;;6.04;48.25;100845.94;6210833;23;19989;-78
2022/04/11 03:23:59;;;;;;;0.20;0.20;;;;;;;5.73;47.87;100797.00;6200597;23;20084;-78
2022/04/11 03:26:28;;;;;;;0.20;0.20;;;;;;;5.46;48.59;100741.94;6215697;23;20369;-78
2022/04/11 03:28:54;;;;;;;0.20;0.20;;;;;;;6.07;48.55;100852.78;6215874;23;20019;-79
2022/04/11 03:31:22;;;;;;;0.20;0.20;;;;;;;5.88;48.74;100806.00;6215320;23;20356;-79
2022/04/11 03:33:48;;;;;;;0.20;0.20;;;;;;;5.81;49.37;100825.00;6241493;23;20027;-78
2022/04/11 03:36:16;;;;;;;0.20;0.20;;;;;;;5.51;49.15;100770.22;6217350;23;20044;-79
2022/04/11 03:38:45;;;;;;;0.20;0.20;;;;;;;5.75;49.39;100824.28;6216385;23;20008;-78
2022/04/11 03:41:12;;;;;;;0.20;0.20;;;;;;;5.72;50.45;100834.03;6216301;23;20047;-79
2022/04/11 03:43:37;;;;;;;0.20;0.20;;;;;;;5.63;50.35;100819.31;6214846;23;20011;-79
2022/04/11 03:46:03;;;;;;;0.20;0.20;;;;;;;5.61;50.06;100832.66;6215193;23;20024;-79
2022/04/11 03:48:29;;;;;;;0.20;0.20;;;;;;;5.54;49.71;100812.97;6214330;23;20000;-78
2022/04/11 03:50:55;;;;;;;0.20;0.20;;;;;;;5.53;49.53;100808.53;6232437;22;20024;-78
2022/04/11 03:53:20;;;;;;;0.20;0.20;;;;;;;6.06;48.90;100865.78;6275853;22;20019;-78
2022/04/11 03:55:46;;;;;;;0.20;0.20;;;;;;;6.03;49.52;100860.91;6274659;22;20052;-78
2022/04/11 03:58:11;;;;;;;0.20;0.20;;;;;;;5.96;49.52;100861.31;6276022;22;19996;-79
2022/04/11 04:00:37;;;;;;;0.20;0.20;;;;;;;5.84;50.40;100865.78;6276558;22;20019;-78
2022/04/11 04:03:11;;;;;;;0.20;0.20;;;;;;;5.85;51.04;100864.63;6275399;22;20003;-78
2022/04/11 04:05:47;;;;;;;0.20;0.20;;;;;;;5.98;50.87;100866.56;6275881;22;20014;-80
2022/04/11 04:08:13;;;;;;;0.30;0.30;;;;;;;6.09;49.54;100867.91;6276296;22;19988;-78
2022/04/11 04:10:44;;;;;;;0.30;0.30;;;;;;;6.04;49.48;100879.09;6275196;22;20008;-78
2022/04/11 04:13:09;;;;;;;0.20;0.20;;;;;;;5.99;50.66;100870.94;6275633;22;19991;-78
2022/04/11 04:15:36;;;;;;;0.30;0.30;;;;;;;5.99;49.94;100876.47;6275450;22;20034;-78
2022/04/11 04:18:02;;;;;;;0.20;0.20;;;;;;;5.97;48.67;100882.31;6275636;22;20031;-79
2022/04/11 04:20:30;;;;;;;0.20;0.20;;;;;;;5.95;49.72;100886.50;6275831;22;20067;-79
2022/04/11 04:22:57;;;;;;;0.20;0.20;;;;;;;5.91;49.12;100879.94;6276195;22;20011;-78
2022/04/11 04:25:23;;;;;;;0.20;0.20;;;;;;;5.95;49.95;100886.50;6274780;22;20007;-78
2022/04/11 04:27:49;;;;;;;0.20;0.20;;;;;;;6.04;50.61;100890.16;6275814;22;19995;-79
2022/04/11 04:30:14;;;;;;;0.20;0.20;;;;;;;5.98;49.47;100891.41;6275119;22;20015;-78
2022/04/11 04:32:41;;;;;;;0.22;0.22;;;;;;;5.90;44.95;100889.38;6249394;22;20007;-78
2022/04/11 04:35:08;;;;;;;0.20;0.20;;;;;;;6.15;48.27;100899.81;6248786;22;20096;-78
2022/04/11 04:37:34;;;;;;;0.20;0.20;;;;;;;6.15;48.27;100899.81;6274281;22;20003;-78
2022/04/11 04:40:00;;;;;;;0.20;0.20;;;;;;;6.17;48.03;100900.28;6274201;22;20019;-79
2022/04/11 04:42:28;;;;;;;0.20;0.20;;;;;;;6.26;49.26;100903.13;6274393;22;19998;-78
2022/04/11 04:44:55;;;;;;;0.20;0.20;;;;;;;6.21;48.20;100897.72;6274366;22;20020;-78
2022/04/11 04:47:21;;;;;;;0.20;0.20;;;;;;;6.21;48.72;100906.81;6274448;22;20065;-78
2022/04/11 04:49:47;;;;;;;0.20;0.20;;;;;;;6.27;48.94;100911.09;6273948;22;20008;-79
2022/04/11 04:52:16;;;;;;;0.20;0.20;;;;;;;6.35;49.22;100917.00;6268623;23;20008;-78
2022/04/11 04:54:41;;;;;;;0.20;0.20;;;;;;;7.36;47.45;100913.28;6243981;22;20038;-79
2022/04/11 04:57:10;;;;;;;0.20;0.20;;;;;;;8.27;44.53;100909.50;6267737;23;20000;-79
2022/04/11 04:59:36;;;;;;;0.20;0.20;;;;;;;9.08;42.38;100910.53;6269467;23;20043;-77
2022/04/11 05:02:02;;;;;;;0.20;0.20;;;;;;;9.84;41.42;100915.06;6268141;23;20035;-77
2022/04/11 05:04:28;;;;;;;0.30;0.30;;;;;;;10.55;38.86;100917.66;6267588;23;20004;-77
2022/04/11 05:06:55;;;;;;;0.20;0.20;;;;;;;10.87;33.19;100921.53;6268164;23;20034;-77
2022/04/11 05:09:21;;;;;;;0.20;0.20;;;;;;;11.93;33.08;100920.50;6268902;22;20004;-77
2022/04/11 05:11:46;;;;;;;0.20;0.20;;;;;;;12.67;33.03;100918.09;6267631;23;20032;-77
2022/04/11 05:14:12;;;;;;;0.20;0.20;;;;;;;13.40;32.98;100913.94;6266601;23;20012;-77
2022/04/11 05:16:38;;;;;;;0.20;0.20;;;;;;;13.95;31.79;100923.13;6267187;23;19996;-77
2022/04/11 05:19:04;;;;;;;0.20;0.20;;;;;;;14.50;31.21;100926.66;6267639;23;20044;-76
2022/04/11 05:21:30;;;;;;;0.20;0.20;;;;;;;14.87;29.13;100923.31;6268460;22;20062;-77
2022/04/11 05:23:55;;;;;;;0.20;0.20;;;;;;;15.60;29.15;100932.44;6266838;23;20008;-76
2022/04/11 05:26:21;;;;;;;0.20;0.20;;;;;;;15.93;27.97;100935.38;6263724;23;20030;-77
2022/04/11 05:28:48;;;;;;;0.20;0.20;;;;;;;15.94;27.64;100927.75;6254601;23;20011;-79
2022/04/11 05:31:15;;;;;;;0.20;0.20;;;;;;;16.59;27.08;100940.53;6246571;23;20012;-83
2022/04/11 05:33:44;;;;;;;0.20;0.20;;;;;;;16.89;26.08;100934.84;6220775;23;20421;-84
2022/04/11 05:36:14;;;;;;;0.20;0.20;;;;;;;17.45;25.69;100922.41;6245661;23;20008;-79
2022/04/11 05:38:40;;;;;;;0.20;0.20;;;;;;;17.72;24.85;100939.84;6246358;22;20031;-84
2022/04/11 05:41:06;;;;;;;0.20;0.20;;;;;;;17.24;23.25;100940.75;6244999;23;20043;-82
2022/04/11 05:43:31;;;;;;;0.20;0.20;;;;;;;17.33;24.02;100945.22;6220229;23;20008;-78
2022/04/11 05:45:57;;;;;;;0.20;0.20;;;;;;;16.68;25.07;100953.06;6245168;23;20335;-84
2022/04/11 05:48:23;;;;;;;0.20;0.20;;;;;;;17.40;24.41;100936.84;6244615;23;20015;-85
2022/04/11 05:50:48;;;;;;;0.20;0.20;;;;;;;17.62;24.46;100944.22;6244840;23;20023;-82
2022/04/11 05:53:14;;;;;;;0.20;0.20;;;;;;;17.48;24.40;100944.94;6245103;23;20480;-83
2022/04/11 05:55:42;;;;;;;0.20;0.20;;;;;;;17.59;24.23;100950.66;6245462;23;20080;-80
2022/04/11 05:58:07;;;;;;;0.20;0.20;;;;;;;17.74;23.66;100954.38;6245234;23;20051;-78
2022/04/11 06:00:33;;;;;;;0.20;0.20;;;;;;;18.35;23.32;100951.84;6244776;23;20306;-81
2022/04/11 06:02:59;;;;;;;0.20;0.20;;;;;;;18.26;22.86;100961.44;6244976;23;20015;-77
2022/04/11 06:05:24;;;;;;;0.20;0.20;;;;;;;18.87;23.36;100949.56;6244835;23;20008;-82
2022/04/11 06:07:50;;;;;;;0.20;0.20;;;;;;;18.73;22.96;100951.16;6244692;23;20008;-82
2022/04/11 06:10:15;;;;;;;0.20;0.20;;;;;;;18.69;23.15;100944.69;6244656;23;20012;-81
2022/04/11 06:12:41;;;;;;;0.20;0.20;;;;;;;18.95;22.62;100954.00;6244732;23;20092;-79
2022/04/11 06:15:07;;;;;;;0.20;0.20;;;;;;;19.09;22.60;100952.00;6245096;23;20004;-79
2022/04/11 06:17:33;;;;;;;0.20;0.20;;;;;;;19.22;22.61;100948.75;6244657;23;20015;-76
2022/04/11 06:20:00;;;;;;;0.20;0.20;;;;;;;18.86;22.43;100953.59;6244578;23;20004;-82
2022/04/11 06:22:26;;;;;;;0.20;0.20;;;;;;;19.46;22.49;100969.72;6244748;23;20083;-81
2022/04/11 06:25:02;;;;;;;0.20;0.20;;;;;;;20.46;21.88;100969.47;6245021;23;20095;-75
2022/04/11 06:27:28;;;;;;;0.20;0.20;;;;;;;20.36;22.13;100960.63;6245422;23;20464;-82
2022/04/11 06:29:56;;;;;;;0.20;0.20;;;;;;;19.60;22.14;100964.91;6245538;23;20008;-81
2022/04/11 06:32:28;;;;;;;0.20;0.20;;;;;;;19.33;22.14;100972.13;6245324;23;20020;-77
2022/04/11 06:34:54;;;;;;;0.20;0.20;;;;;;;18.61;23.24;100976.06;6245397;23;20016;-80
2022/04/11 06:37:21;;;;;;;0.20;0.20;;;;;;;19.15;22.73;100971.34;6244582;23;20012;-83
2022/04/11 06:39:47;;;;;;;0.20;0.20;;;;;;;18.37;23.77;100971.97;6244818;23;20329;-77
2022/04/11 06:42:13;;;;;;;0.20;0.20;;;;;;;18.07;24.08;100973.06;6244954;23;20008;-80
2022/04/11 06:44:39;;;;;;;0.20;0.20;;;;;;;18.65;24.08;100977.69;6244655;23;20479;-80
2022/04/11 06:47:05;;;;;;;0.20;0.20;;;;;;;18.90;23.25;100977.75;6245327;23;20023;-84
2022/04/11 06:49:31;;;;;;;0.20;0.20;;;;;;;19.10;23.24;100975.38;6245417;23;20004;-80
2022/04/11 06:51:57;;;;;;;0.20;0.20;;;;;;;18.83;23.89;100964.47;6267404;22;20101;-83
2022/04/11 06:54:22;;;;;;;0.20;0.20;;;;;;;19.08;23.47;100974.97;6249888;22;20318;-86
2022/04/11 06:56:48;;;;;;;0.20;0.20;;;;;;;18.66;23.78;100964.41;6249875;22;20007;-78
2022/04/11 06:59:16;;;;;;;0.20;0.20;;;;;;;17.88;24.92;100970.53;6249882;22;20008;-83
2022/04/11 07:01:42;;;;;;;0.20;0.20;;;;;;;17.63;24.77;100974.00;6249689;22;20011;-76
2022/04/11 07:04:08;;;;;;;0.20;0.20;;;;;;;17.70;25.56;100967.59;6249280;22;20008;-75
2022/04/11 07:06:37;;;;;;;0.20;0.20;;;;;;;17.70;25.51;100968.41;6250416;22;20054;-78
2022/04/11 07:09:03;;;;;;;0.20;0.20;;;;;;;16.45;26.64;100983.31;6249580;22;20007;-77
2022/04/11 07:11:31;;;;;;;0.20;0.20;;;;;;;16.64;26.99;100985.94;6250119;22;20031;-78
2022/04/11 07:13:57;;;;;;;0.20;0.20;;;;;;;17.03;27.31;100972.28;6250814;22;20018;-76
2022/04/11 07:16:24;;;;;;;0.20;0.20;;;;;;;17.16;26.73;100978.44;6250272;22;20018;-78
2022/04/11 07:18:50;;;;;;;0.20;0.20;;;;;;;16.36;27.62;100980.00;6249593;22;20004;-79
2022/04/11 07:21:19;;;;;;;0.20;0.20;;;;;;;16.63;26.75;100978.72;6249672;22;20018;-76
2022/04/11 07:23:45;;;;;;;0.20;0.20;;;;;;;16.40;26.92;100978.84;6251804;22;20384;-77
2022/04/11 07:26:12;;;;;;;0.20;0.20;;;;;;;16.76;27.05;100982.88;6253893;22;20066;-77
2022/04/11 07:28:39;;;;;;;0.20;0.20;;;;;;;16.91;27.00;100977.41;6252066;22;20012;-76
2022/04/11 07:31:05;;;;;;;0.20;0.20;;;;;;;17.23;25.43;100980.50;6251999;22;20031;-77
2022/04/11 07:33:30;;;;;;;0.20;0.20;;;;;;;17.70;25.56;100988.09;6251254;22;20058;-76
2022/04/11 07:35:56;;;;;;;0.20;0.20;;;;;;;19.09;24.48;100991.50;6251383;22;20161;-76
2022/04/11 07:38:21;;;;;;;0.20;0.20;;;;;;;18.97;23.91;100982.63;6251554;22;20008;-74
2022/04/11 07:40:48;;;;;;;0.20;0.20;;;;;;;19.68;23.61;100985.44;6251304;22;20007;-75
2022/04/11 07:43:14;;;;;;;0.20;0.20;;;;;;;20.13;23.04;100991.38;6251979;22;20011;-74
2022/04/11 07:45:41;;;;;;;0.20;0.20;;;;;;;19.42;24.24;100988.66;6250957;22;20049;-74
2022/04/11 07:48:06;;;;;;;0.20;0.20;;;;;;;20.32;23.13;100982.44;6226255;22;20011;-74
2022/04/11 07:50:32;;;;;;;0.20;0.20;;;;;;;18.87;23.75;100994.69;6251370;22;20008;-78
2022/04/11 07:52:58;;;;;;;0.20;0.20;;;;;;;18.41;23.96;100995.31;6251847;22;20424;-78
2022/04/11 07:55:27;;;;;;;0.20;0.20;;;;;;;18.44;23.51;100988.91;6253048;22;20447;-76
2022/04/11 07:57:53;;;;;;;0.20;0.20;;;;;;;18.82;22.44;100993.88;6279039;22;20011;-77
2022/04/11 08:00:20;;;;;;;0.20;0.20;;;;;;;18.83;23.40;100984.19;6251755;22;20439;-77
2022/04/11 08:02:52;;;;;;;0.20;0.20;;;;;;;18.49;23.68;101002.59;6251107;22;20003;-76
2022/04/11 08:05:21;;;;;;;0.20;0.20;;;;;;;18.89;23.46;100983.81;6250971;22;20004;-76
2022/04/11 08:07:48;;;;;;;0.20;0.20;;;;;;;19.00;23.53;100998.72;6277933;22;20000;-75
2022/04/11 08:10:13;;;;;;;0.20;0.20;;;;;;;18.54;24.18;100993.78;6252042;22;20004;-74
2022/04/11 08:12:40;;;;;;;0.20;0.20;;;;;;;19.68;22.87;100988.28;6250976;22;20306;-75
2022/04/11 08:15:06;;;;;;;0.20;0.20;;;;;;;19.97;21.71;100996.66;6251065;22;20011;-75
2022/04/11 08:17:32;;;;;;;0.20;0.20;;;;;;;20.47;21.92;100999.34;6251211;22;20010;-74
2022/04/11 08:19:57;;;;;;;0.20;0.20;;;;;;;20.94;21.09;101000.72;6251083;22;20023;-74
2022/04/11 08:22:23;;;;;;;0.20;0.20;;;;;;;21.75;20.39;100989.94;6251142;22;20007;-75
2022/04/11 08:24:49;;;;;;;0.17;0.17;;;;;;;21.49;19.72;100991.41;6251024;22;20008;-74
2022/04/11 08:27:15;;;;;;;0.20;0.20;;;;;;;20.98;20.51;100989.34;6251286;22;20039;-74
2022/04/11 08:29:41;;;;;;;0.20;0.20;;;;;;;21.44;20.24;100994.69;6251029;22;20039;-74
2022/04/11 08:32:09;;;;;;;0.20;0.20;;;;;;;21.82;20.18;100995.53;6250724;22;20016;-75
2022/04/11 08:34:35;;;;;;;0.20;0.20;;;;;;;19.96;20.89;100989.41;6250759;22;20058;-76
2022/04/11 08:37:00;;;;;;;0.20;0.20;;;;;;;20.41;21.28;100979.16;6250954;22;20090;-75
2022/04/11 08:39:26;;;;;;;0.20;0.20;;;;;;;20.10;22.10;101000.69;6251356;22;20383;-78
2022/04/11 08:41:59;;;;;;;0.20;0.20;;;;;;;19.42;21.45;100992.28;6251536;22;20086;-77
2022/04/11 08:44:26;;;;;;;0.20;0.20;;;;;;;18.55;23.01;100995.38;6251602;22;20011;-77
2022/04/11 08:46:55;;;;;;;0.20;0.20;;;;;;;19.10;22.47;100997.94;6251401;22;20424;-76
2022/04/11 08:49:21;;;;;;;0.20;0.20;;;;;;;20.32;22.07;100999.38;6250777;22;20011;-74
2022/04/11 08:51:46;;;;;;;0.20;0.20;;;;;;;21.07;20.98;100976.34;6245153;23;20016;-74
2022/04/11 08:54:13;;;;;;;0.20;0.20;;;;;;;21.90;20.36;100994.25;6246350;23;20011;-74
2022/04/11 08:56:39;;;;;;;0.20;0.20;;;;;;;21.69;19.96;101000.13;6245533;23;20004;-74
2022/04/11 08:59:05;;;;;;;0.20;0.20;;;;;;;20.49;20.46;100999.75;6245455;23;20015;-75
2022/04/11 09:01:34;;;;;;;0.20;0.20;;;;;;;19.96;22.49;101003.53;6245295;23;20000;-76
2022/04/11 09:03:59;;;;;;;0.20;0.20;;;;;;;19.21;22.32;100997.94;6246441;23;20341;-75
2022/04/11 09:06:26;;;;;;;0.20;0.20;;;;;;;17.93;23.23;101009.56;6246131;23;20062;-77
2022/04/11 09:08:57;;;;;;;0.20;0.20;;;;;;;18.95;22.20;101010.41;6246206;23;20035;-74
2022/04/11 09:11:29;;;;;;;0.20;0.20;;;;;;;19.61;21.25;101010.88;6246069;23;20016;-76
2022/04/11 09:13:55;;;;;;;0.20;0.20;;;;;;;19.58;20.92;101003.97;6245955;23;20089;-76
2022/04/11 09:16:20;;;;;;;0.20;0.20;;;;;;;19.53;21.13;100997.94;6245859;23;20008;-76
2022/04/11 09:18:52;;;;;;;0.20;0.20;;;;;;;19.20;20.19;101002.78;6245302;23;20443;-75
2022/04/11 09:21:19;;;;;;;0.20;0.20;;;;;;;19.26;19.98;101006.00;6246999;22;20079;-75
2022/04/11 09:23:44;;;;;;;0.20;0.20;;;;;;;19.50;20.89;101010.84;6245929;23;20373;-75
2022/04/11 09:26:24;;;;;;;0.20;0.20;;;;;;;20.60;21.00;101003.31;6245648;23;20008;-75
2022/04/11 09:29:03;;;;;;;0.20;0.20;;;;;;;21.73;19.44;101008.56;6245920;23;20004;-75
2022/04/11 09:31:29;;;;;;;0.20;0.20;;;;;;;21.99;18.76;101002.22;6245464;23;20004;-74
2022/04/11 09:33:55;;;;;;;0.20;0.20;;;;;;;22.56;18.13;100990.22;6245133;23;20004;-74
2022/04/11 09:36:24;;;;;;;0.20;0.20;;;;;;;22.44;17.77;100997.25;6245924;23;20015;-74
2022/04/11 09:39:01;;;;;;;0.13;0.13;;;;;;;21.60;18.21;100996.97;6245092;23;20008;-74
2022/04/11 09:41:34;;;;;;;0.10;0.10;;;;;;;23.11;17.63;100988.22;6246286;22;20004;-74
2022/04/11 09:44:22;;;;;;;0.20;0.20;;;;;;;23.80;17.56;100992.31;6246565;22;20035;-74
2022/04/11 09:46:48;;;;;;;0.20;0.20;;;;;;;23.73;16.93;100993.28;6245014;23;20091;-74
2022/04/11 09:49:14;;;;;;;0.17;0.17;;;;;;;24.02;16.86;100987.84;6245598;23;20011;-74
2022/04/11 09:52:04;;;;;;;0.20;0.20;;;;;;;23.78;16.90;100989.13;6244386;23;20020;-74
2022/04/11 09:54:30;;;;;;;0.10;0.10;;;;;;;24.52;16.16;100980.34;6244828;23;20004;-74
2022/04/11 09:57:00;;;;;;;0.20;0.20;;;;;;;24.46;16.66;100982.91;6245803;23;20305;-74
2022/04/11 09:59:26;;;;;;;0.20;0.20;;;;;;;24.31;16.25;100973.06;6244696;23;20020;-74
2022/04/11 10:01:53;;;;;;;0.10;0.10;;;;;;;23.47;17.68;100980.72;6244916;23;20011;-75
2022/04/11 10:04:19;;;;;;;0.20;0.20;;;;;;;23.80;16.29;100978.13;6245911;23;20008;-75
2022/04/11 10:06:45;;;;;;;0.20;0.20;;;;;;;24.43;16.51;100972.41;6245183;23;20451;-74
2022/04/11 10:09:15;;;;;;;0.10;0.10;;;;;;;24.32;16.00;100966.13;6244781;23;20007;-74
2022/04/11 10:11:43;;;;;;;0.10;0.10;;;;;;;24.60;15.59;100958.22;6244976;23;20418;-74
2022/04/11 10:14:13;;;;;;;0.10;0.10;;;;;;;24.73;15.68;100959.16;6244657;23;20004;-74
2022/04/11 10:16:43;;;;;;;0.10;0.10;;;;;;;25.08;16.06;100961.16;6245065;23;20331;-73
2022/04/11 10:19:13;;;;;;;0.10;0.10;;;;;;;24.58;16.89;100960.72;6244705;23;20004;-74
2022/04/11 10:21:49;;;;;;;0.10;0.10;;;;;;;24.12;15.90;100960.44;6245476;23;20015;-73
2022/04/11 10:24:28;;;;;;;0.20;0.20;;;;;;;24.34;16.02;100957.94;6244695;23;20008;-74
2022/04/11 10:26:56;;;;;;;0.20;0.20;;;;;;;24.64;16.39;100936.19;6245141;23;20012;-74
2022/04/11 10:29:36;;;;;;;0.10;0.10;;;;;;;24.88;16.78;100943.34;6244620;23;20009;-73
2022/04/11 10:32:10;;;;;;;0.13;0.13;;;;;;;24.68;16.62;100948.28;6245271;23;20039;-73
2022/04/11 10:35:02;;;;;;;0.20;0.20;;;;;;;23.19;16.66;100941.47;6244609;23;20016;-73
2022/04/11 10:37:40;;;;;;;0.10;0.10;;;;;;;23.29;16.47;100894.25;6244957;23;20321;-74
2022/04/11 10:40:17;;;;;;;0.20;0.20;;;;;;;23.50;16.38;100940.09;6244584;23;20012;-74
2022/04/11 10:43:05;;;;;;;0.20;0.20;;;;;;;23.55;16.56;100932.31;6244653;23;20012;-74
2022/04/11 10:45:38;;;;;;;0.20;0.20;;;;;;;23.85;16.05;100931.34;6244646;23;20004;-74
2022/04/11 10:48:06;;;;;;;0.10;0.10;;;;;;;24.14;15.28;100925.91;6239346;23;20038;-73
2022/04/11 10:50:39;;;;;;;0.20;0.20;;;;;;;23.96;15.17;100921.38;6248576;22;20008;-73
2022/04/11 10:53:25;;;;;;;0.20;0.20;;;;;;;23.97;15.76;100919.31;6249646;22;20095;-73
2022/04/11 10:56:05;;;;;;;0.20;0.20;;;;;;;22.86;16.18;100918.47;6250416;22;20004;-73
2022/04/11 10:58:43;;;;;;;0.20;0.20;;;;;;;22.40;16.79;100913.47;6251657;22;20015;-74
2022/04/11 11:01:10;;;;;;;0.20;0.20;;;;;;;22.44;16.76;100909.38;6252588;22;20352;-73
2022/04/11 11:03:39;;;;;;;0.20;0.20;;;;;;;22.60;16.94;100907.94;6251907;22;20428;-74
2022/04/11 11:06:19;;;;;;;0.20;0.20;;;;;;;23.24;16.84;100902.03;6251882;22;20019;-73
2022/04/11 11:08:45;;;;;;;0.10;0.10;;;;;;;23.35;16.99;100893.31;6251916;22;20109;-75
2022/04/11 11:11:22;;;;;;;0.10;0.10;;;;;;;23.38;17.16;100903.78;6251361;22;20082;-75
2022/04/11 11:13:51;;;;;;;0.10;0.10;;;;;;;23.68;16.89;100890.69;6252185;22;20086;-75
2022/04/11 11:16:17;;;;;;;0.20;0.20;;;;;;;22.35;18.26;100900.59;6252194;22;20046;-75
2022/04/11 11:18:46;;;;;;;0.17;0.17;;;;;;;21.88;18.48;100897.50;6251589;22;20007;-75
2022/04/11 11:21:20;;;;;;;0.20;0.20;;;;;;;21.05;21.18;100898.78;6252057;22;20421;-75
2022/04/11 11:24:04;;;;;;;0.10;0.10;;;;;;;20.28;21.80;100890.41;6252353;22;20012;-74
2022/04/11 11:26:46;;;;;;;0.20;0.20;;;;;;;20.36;23.80;100898.44;6251603;22;20004;-74
2022/04/11 11:29:20;;;;;;;0.20;0.20;;;;;;;20.82;24.51;100899.34;6251556;22;19999;-75
2022/04/11 11:31:47;;;;;;;0.20;0.20;;;;;;;20.19;24.07;100907.81;6251411;22;20440;-74